createdAt,value
2019-03-20T00:01:46.063Z,4.70
2019-03-20T00:04:13.722Z,5.67
2019-03-20T00:06:41.474Z,5.60
2019-03-20T00:09:09.074Z,5.20
2019-03-20T00:11:36.656Z,5.23
2019-03-20T00:14:04.053Z,5.23
2019-03-20T00:16:31.641Z,5.50
2019-03-20T00:18:59.375Z,4.90
2019-03-20T00:21:26.820Z,5.90
2019-03-20T00:23:54.374Z,5.30
2019-03-20T00:26:22.939Z,4.90
2019-03-20T00:28:50.546Z,5.40
2019-03-20T00:31:18.158Z,5.70
2019-03-20T00:33:45.666Z,4.73
2019-03-20T00:36:13.362Z,6.47
2019-03-20T00:38:41.026Z,5.30
2019-03-20T00:41:08.418Z,6.00
2019-03-20T00:43:35.787Z,6.70
2019-03-20T00:46:03.254Z,5.97
2019-03-20T00:48:30.865Z,7.00
2019-03-20T00:50:58.361Z,6.80
2019-03-20T00:53:26.014Z,5.90
2019-03-20T00:55:53.678Z,6.63
2019-03-20T00:58:21.187Z,6.23
2019-03-20T01:00:48.706Z,7.00
2019-03-20T01:03:17.362Z,6.90
2019-03-20T01:05:44.674Z,6.10
2019-03-20T01:08:12.277Z,7.93
2019-03-20T01:10:42.765Z,7.00
2019-03-20T01:13:10.174Z,9.77
2019-03-20T01:15:37.479Z,7.77
2019-03-20T01:18:05.020Z,8.03
2019-03-20T01:20:32.425Z,7.67
2019-03-20T01:22:59.807Z,7.03
2019-03-20T01:25:27.412Z,7.33
2019-03-20T01:27:54.902Z,8.53
2019-03-20T01:30:37.685Z,7.53
2019-03-20T01:33:07.069Z,8.50
2019-03-20T01:35:35.013Z,11.00
2019-03-20T01:38:02.575Z,8.37
2019-03-20T01:40:30.399Z,10.57
2019-03-20T01:42:58.201Z,9.23
2019-03-20T01:45:25.626Z,8.90
2019-03-20T01:47:53.151Z,10.30
2019-03-20T01:50:20.670Z,10.50
2019-03-20T01:52:48.173Z,10.80
2019-03-20T01:55:15.714Z,11.50
2019-03-20T01:57:43.139Z,11.63
2019-03-20T02:00:10.950Z,10.83
2019-03-20T02:02:38.497Z,10.83
2019-03-20T02:05:06.286Z,11.80
2019-03-20T02:07:36.614Z,9.83
2019-03-20T02:10:04.764Z,10.20
2019-03-20T02:12:32.237Z,12.03
2019-03-20T02:14:59.695Z,11.57
2019-03-20T02:17:27.240Z,11.80
2019-03-20T02:19:54.740Z,12.83
2019-03-20T02:22:22.265Z,11.10
2019-03-20T02:24:52.279Z,12.30
2019-03-20T02:27:19.826Z,13.70
2019-03-20T02:29:47.157Z,11.80
2019-03-20T02:32:14.448Z,13.63
2019-03-20T02:34:42.085Z,14.07
2019-03-20T02:37:09.745Z,13.83
2019-03-20T02:39:37.289Z,14.60
2019-03-20T02:42:04.754Z,14.90
2019-03-20T02:44:32.320Z,14.60
2019-03-20T02:46:59.870Z,13.23
2019-03-20T02:49:27.332Z,16.10
2019-03-20T02:51:54.770Z,15.00
2019-03-20T02:54:22.051Z,14.83
2019-03-20T02:56:49.630Z,16.20
2019-03-20T02:59:17.589Z,17.00
2019-03-20T03:13:47.604Z,16.53
2019-03-20T03:16:15.272Z,16.43
2019-03-20T03:18:44.009Z,17.23
2019-03-20T03:21:11.482Z,17.30
2019-03-20T03:23:39.355Z,17.70
2019-03-20T03:26:06.764Z,17.47
2019-03-20T03:28:34.392Z,17.90
2019-03-20T03:31:01.933Z,17.50
2019-03-20T03:33:29.391Z,18.27
2019-03-20T03:35:56.962Z,19.77
2019-03-20T03:38:24.454Z,21.42
2019-03-20T03:40:52.474Z,18.80
2019-03-20T03:43:19.942Z,20.20
2019-03-20T03:45:47.477Z,21.00
2019-03-20T03:48:14.890Z,19.67
2019-03-20T03:50:42.660Z,18.50
2019-03-20T03:53:10.022Z,19.77
2019-03-20T03:55:37.373Z,19.40
2019-03-20T03:58:04.879Z,20.00
2019-03-20T04:00:32.509Z,19.63
2019-03-20T04:03:00.032Z,19.03
2019-03-20T04:05:27.516Z,20.10
2019-03-20T04:07:55.145Z,20.30
2019-03-20T04:10:22.628Z,22.23
2019-03-20T04:12:50.348Z,20.70
2019-03-20T04:15:18.551Z,20.53
2019-03-20T04:17:46.259Z,21.60
2019-03-20T04:20:13.775Z,21.87
2019-03-20T04:22:41.329Z,22.33
2019-03-20T04:25:09.180Z,23.57
2019-03-20T04:27:36.734Z,23.23
2019-03-20T04:30:04.686Z,23.17
2019-03-20T04:32:32.164Z,21.13
2019-03-20T04:34:59.602Z,23.40
2019-03-20T04:37:27.086Z,23.97
2019-03-20T04:39:54.546Z,22.10
2019-03-20T04:42:22.028Z,23.90
2019-03-20T04:44:49.387Z,22.67
2019-03-20T04:47:16.785Z,22.63
2019-03-20T04:49:44.530Z,23.20
2019-03-20T04:52:12.029Z,23.73
2019-03-20T04:54:42.139Z,25.37
2019-03-20T04:57:10.054Z,22.80
2019-03-20T04:59:37.628Z,23.63
2019-03-20T05:02:05.179Z,21.23
2019-03-20T05:04:32.891Z,24.20
2019-03-20T05:07:00.432Z,22.40
2019-03-20T05:09:27.993Z,25.77
2019-03-20T05:11:55.519Z,23.90
2019-03-20T05:14:22.974Z,25.57
2019-03-20T05:16:50.640Z,26.33
2019-03-20T05:19:18.406Z,26.10
2019-03-20T05:21:45.720Z,25.93
2019-03-20T05:24:13.529Z,25.80
2019-03-20T05:26:41.138Z,26.33
2019-03-20T05:29:08.670Z,26.00
2019-03-20T05:31:41.259Z,27.77
2019-03-20T05:34:08.809Z,28.60
2019-03-20T05:36:36.476Z,26.83
2019-03-20T05:39:06.579Z,25.83
2019-03-20T05:41:34.060Z,27.83
2019-03-20T05:44:01.631Z,27.43
2019-03-20T05:46:29.294Z,26.37
2019-03-20T05:48:56.676Z,28.93
2019-03-20T05:51:24.078Z,28.07
2019-03-20T05:53:51.510Z,26.10
2019-03-20T05:56:19.190Z,27.50
2019-03-20T05:58:46.786Z,30.73
2019-03-20T06:01:14.220Z,28.93
2019-03-20T06:03:41.644Z,28.03
2019-03-20T06:06:08.910Z,27.73
2019-03-20T06:08:36.308Z,28.00
2019-03-20T06:11:04.269Z,26.30
2019-03-20T06:13:31.898Z,28.17
2019-03-20T06:15:59.402Z,28.00
2019-03-20T06:18:27.089Z,30.00
2019-03-20T06:20:54.927Z,29.37
2019-03-20T06:23:22.369Z,28.83
2019-03-20T06:25:51.612Z,29.23
2019-03-20T06:28:20.593Z,28.10
2019-03-20T06:30:48.231Z,30.07
2019-03-20T06:33:15.668Z,29.33
2019-03-20T06:35:43.395Z,30.23
2019-03-20T06:38:10.961Z,29.27
2019-03-20T06:40:38.584Z,30.20
2019-03-20T06:43:06.186Z,29.67
2019-03-20T06:45:33.656Z,30.10
2019-03-20T06:48:01.183Z,30.77
2019-03-20T06:50:29.893Z,29.93
2019-03-20T06:52:57.413Z,29.53
2019-03-20T06:55:24.837Z,28.80
2019-03-20T06:57:52.232Z,29.10
2019-03-20T07:00:59.840Z,28.97
2019-03-20T07:03:50.499Z,29.60
2019-03-20T07:06:26.245Z,28.50
2019-03-20T07:09:27.121Z,35.43
2019-03-20T07:11:54.671Z,29.70
2019-03-20T07:14:22.209Z,31.33
2019-03-20T07:16:49.865Z,32.73
2019-03-20T07:19:17.340Z,30.33
2019-03-20T07:21:44.812Z,29.43
2019-03-20T07:24:12.214Z,31.10
2019-03-20T07:26:42.188Z,30.30
2019-03-20T07:29:09.752Z,29.40
2019-03-20T07:31:37.343Z,30.33
2019-03-20T07:34:04.821Z,30.00
2019-03-20T07:36:32.485Z,31.07
2019-03-20T07:38:59.975Z,29.53
2019-03-20T07:41:27.422Z,28.67
2019-03-20T07:43:54.875Z,28.37
2019-03-20T07:46:22.308Z,32.50
2019-03-20T07:48:49.926Z,29.43
2019-03-20T07:51:17.641Z,29.27
2019-03-20T07:53:45.226Z,29.60
2019-03-20T07:56:12.618Z,33.10
2019-03-20T07:58:40.233Z,29.20
2019-03-20T08:01:07.680Z,31.53
2019-03-20T08:03:35.247Z,29.83
2019-03-20T08:06:04.170Z,31.10
2019-03-20T08:08:31.630Z,30.60
2019-03-20T08:10:58.914Z,29.13
2019-03-20T08:13:26.352Z,28.83
2019-03-20T08:15:53.683Z,28.73
2019-03-20T08:18:21.199Z,27.97
2019-03-20T08:20:48.635Z,28.83
2019-03-20T08:23:16.086Z,27.80
2019-03-20T08:25:43.662Z,28.77
2019-03-20T08:28:11.371Z,27.73
2019-03-20T08:30:39.241Z,29.60
2019-03-20T08:33:06.896Z,29.90
2019-03-20T08:35:34.283Z,26.90
2019-03-20T08:38:01.996Z,27.83
2019-03-20T08:40:29.469Z,27.70
2019-03-20T08:42:56.785Z,26.83
2019-03-20T08:45:24.281Z,26.30
2019-03-20T08:47:51.765Z,26.23
2019-03-20T08:50:19.302Z,28.20
2019-03-20T08:52:47.126Z,28.00
2019-03-20T08:55:14.570Z,26.13
2019-03-20T08:57:42.121Z,27.10
2019-03-20T09:00:12.932Z,26.70
2019-03-20T09:02:40.616Z,29.20
2019-03-20T09:05:09.061Z,27.00
2019-03-20T09:07:46.899Z,25.70
2019-03-20T09:10:09.187Z,26.10
2019-03-20T09:12:46.067Z,26.80
2019-03-20T09:15:17.009Z,25.37
2019-03-20T09:17:44.568Z,26.90
2019-03-20T09:20:13.174Z,26.47
2019-03-20T09:22:40.638Z,25.77
2019-03-20T09:25:09.885Z,25.13
2019-03-20T09:27:37.351Z,25.00
2019-03-20T09:30:08.032Z,24.43
2019-03-20T09:32:35.878Z,24.13
2019-03-20T09:35:03.953Z,24.70
2019-03-20T09:37:32.507Z,25.50
2019-03-20T09:40:00.006Z,24.80
2019-03-20T09:42:27.402Z,24.37
2019-03-20T09:44:54.823Z,22.87
2019-03-20T09:47:22.309Z,25.20
2019-03-20T09:49:49.796Z,27.13
2019-03-20T09:52:17.222Z,23.33
2019-03-20T09:54:44.741Z,24.60
2019-03-20T09:57:12.317Z,23.20
2019-03-20T09:59:40.806Z,23.80
2019-03-20T10:02:08.296Z,24.37
2019-03-20T10:04:35.841Z,24.20
2019-03-20T10:07:03.538Z,23.27
2019-03-20T10:09:31.185Z,25.30
2019-03-20T10:11:58.646Z,25.70
2019-03-20T10:14:26.107Z,22.43
2019-03-20T10:16:54.117Z,23.93
2019-03-20T10:19:21.533Z,23.20
2019-03-20T10:21:49.044Z,24.92
2019-03-20T10:24:16.614Z,23.80
2019-03-20T10:26:44.358Z,24.17
2019-03-20T10:29:12.975Z,24.20
2019-03-20T10:31:40.793Z,22.83
2019-03-20T10:34:08.460Z,23.33
2019-03-20T10:36:36.007Z,24.10
2019-03-20T10:39:06.724Z,23.07
2019-03-20T10:41:34.749Z,24.40
2019-03-20T10:44:02.363Z,23.47
2019-03-20T10:46:29.941Z,22.90
2019-03-20T10:48:57.510Z,22.80
2019-03-20T10:51:25.038Z,24.70
2019-03-20T10:53:52.585Z,24.50
2019-03-20T10:56:20.048Z,24.60
2019-03-20T10:58:47.599Z,24.07
2019-03-20T11:01:15.214Z,25.70
2019-03-20T11:03:44.229Z,23.83
2019-03-20T11:06:11.909Z,23.40
2019-03-20T11:08:39.915Z,23.27
2019-03-20T11:11:07.350Z,22.83
2019-03-20T11:13:34.820Z,24.80
2019-03-20T11:16:02.374Z,23.50
2019-03-20T11:18:29.879Z,24.43
2019-03-20T11:20:57.383Z,24.40
2019-03-20T11:23:25.032Z,27.57
2019-03-20T11:25:52.680Z,26.10
2019-03-20T11:28:20.096Z,25.73
2019-03-20T11:30:47.524Z,24.50
2019-03-20T11:33:16.170Z,26.40
2019-03-20T11:35:44.059Z,25.20
2019-03-20T11:38:11.715Z,26.60
2019-03-20T11:40:39.493Z,25.07
2019-03-20T11:43:06.937Z,26.30
2019-03-20T11:45:34.316Z,26.43
2019-03-20T11:48:01.768Z,28.90
2019-03-20T11:50:31.572Z,27.27
2019-03-20T11:52:59.026Z,25.40
2019-03-20T11:55:26.729Z,28.10
2019-03-20T11:57:54.044Z,25.43
2019-03-20T12:00:22.026Z,27.33
2019-03-20T12:02:49.652Z,27.20
2019-03-20T12:05:17.095Z,28.43
2019-03-20T12:07:44.863Z,25.70
2019-03-20T12:10:15.087Z,26.37
2019-03-20T12:12:42.783Z,26.13
2019-03-20T12:15:10.282Z,26.03
2019-03-20T12:17:37.658Z,30.00
2019-03-20T12:20:07.783Z,27.50
2019-03-20T12:22:35.107Z,26.20
2019-03-20T12:25:03.058Z,25.33
2019-03-20T12:27:30.515Z,26.17
2019-03-20T12:29:58.065Z,26.50
2019-03-20T12:32:26.371Z,25.60
2019-03-20T12:34:54.493Z,28.23
2019-03-20T12:37:22.176Z,27.00
2019-03-20T12:39:53.344Z,28.33
2019-03-20T12:42:18.780Z,26.60
2019-03-20T12:44:46.176Z,27.03
2019-03-20T12:47:13.559Z,28.90
2019-03-20T12:49:40.968Z,25.07
2019-03-20T12:52:08.399Z,28.03
2019-03-20T12:54:37.039Z,26.90
2019-03-20T12:57:04.518Z,27.77
2019-03-20T12:59:31.947Z,30.30
2019-03-20T13:01:59.586Z,29.00
2019-03-20T13:04:27.081Z,28.93
2019-03-20T13:06:55.691Z,30.92
2019-03-20T13:09:23.158Z,29.43
2019-03-20T13:11:50.641Z,27.50
2019-03-20T13:14:18.390Z,27.10
2019-03-20T13:16:45.992Z,28.07
2019-03-20T13:19:13.405Z,28.47
2019-03-20T13:21:40.838Z,27.70
2019-03-20T13:24:08.461Z,27.97
2019-03-20T13:26:35.971Z,26.47
2019-03-20T13:29:03.457Z,27.83
2019-03-20T13:31:30.885Z,27.93
2019-03-20T13:33:58.598Z,28.30
2019-03-20T13:36:26.038Z,28.27
2019-03-20T13:38:56.408Z,27.60
2019-03-20T13:41:23.515Z,28.40
2019-03-20T13:43:51.320Z,27.30
2019-03-20T13:46:18.809Z,29.83
2019-03-20T13:48:46.398Z,29.33
2019-03-20T13:51:13.748Z,28.40
2019-03-20T13:53:41.432Z,28.53
2019-03-20T13:56:08.839Z,28.13
2019-03-20T13:58:36.294Z,30.23
2019-03-20T14:01:03.756Z,30.20
2019-03-20T14:03:31.142Z,30.50
2019-03-20T14:05:58.703Z,31.07
2019-03-20T14:08:27.199Z,33.00
2019-03-20T14:10:55.037Z,31.93
2019-03-20T14:13:22.629Z,31.60
2019-03-20T14:15:50.106Z,28.60
2019-03-20T14:18:18.372Z,30.17
2019-03-20T14:20:45.974Z,32.20
2019-03-20T14:23:13.257Z,28.50
2019-03-20T14:25:40.817Z,30.80
2019-03-20T14:28:08.191Z,30.40
2019-03-20T14:30:35.542Z,29.27
2019-03-20T14:33:03.088Z,29.70
2019-03-20T14:35:30.558Z,29.80
2019-03-20T14:37:58.134Z,29.53
2019-03-20T14:40:35.299Z,29.27
2019-03-20T14:42:56.235Z,29.07
2019-03-20T14:45:23.943Z,32.38
2019-03-20T14:47:51.522Z,29.87
2019-03-20T14:50:21.960Z,29.50
2019-03-20T14:52:49.522Z,30.53
2019-03-20T14:55:18.121Z,30.17
2019-03-20T14:57:45.670Z,31.40
2019-03-20T15:00:15.627Z,29.10
2019-03-20T15:02:43.421Z,28.73
2019-03-20T15:05:11.242Z,28.60
2019-03-20T15:07:38.910Z,29.60
2019-03-20T15:10:07.290Z,29.73
2019-03-20T15:12:34.725Z,29.47
2019-03-20T15:15:02.510Z,29.83
2019-03-20T15:17:31.109Z,31.07
2019-03-20T15:19:58.547Z,30.37
2019-03-20T15:22:26.025Z,29.80
2019-03-20T15:24:53.364Z,30.37
2019-03-20T15:27:20.985Z,30.07
2019-03-20T15:29:48.517Z,30.47
2019-03-20T15:32:15.784Z,31.13
2019-03-20T15:35:02.797Z,29.63
2019-03-20T15:37:30.282Z,29.80
2019-03-20T15:39:57.765Z,29.67
2019-03-20T15:42:25.194Z,30.67
2019-03-20T15:44:52.682Z,29.63
2019-03-20T15:47:20.184Z,31.20
2019-03-20T15:49:47.702Z,30.43
2019-03-20T15:52:15.103Z,30.43
2019-03-20T15:54:42.882Z,32.10
2019-03-20T15:57:10.367Z,31.03
2019-03-20T15:59:37.958Z,30.87
2019-03-20T16:02:05.407Z,34.07
2019-03-20T16:04:32.790Z,31.10
2019-03-20T16:07:00.132Z,31.97
2019-03-20T16:09:27.731Z,29.73
2019-03-20T16:11:55.099Z,30.40
2019-03-20T16:14:22.567Z,33.07
2019-03-20T16:16:51.217Z,28.97
2019-03-20T16:19:18.617Z,30.30
2019-03-20T16:21:46.041Z,31.00
2019-03-20T16:24:13.639Z,30.07
2019-03-20T16:26:41.040Z,30.27
2019-03-20T16:29:08.554Z,31.27
2019-03-20T16:31:36.111Z,29.40
2019-03-20T16:34:03.548Z,32.07
2019-03-20T16:36:30.962Z,31.13
2019-03-20T16:38:58.339Z,32.43
2019-03-20T16:41:25.902Z,33.07
2019-03-20T16:43:53.505Z,31.60
2019-03-20T16:46:20.866Z,31.60
2019-03-20T16:48:48.376Z,31.50
2019-03-20T16:51:15.859Z,32.57
2019-03-20T16:53:43.668Z,31.97
2019-03-20T16:56:11.350Z,34.75
2019-03-20T16:58:40.139Z,32.23
2019-03-20T17:01:07.470Z,33.20
2019-03-20T17:03:35.026Z,32.17
2019-03-20T17:06:22.096Z,31.70
2019-03-20T17:08:49.549Z,32.10
2019-03-20T17:11:26.294Z,30.90
2019-03-20T17:13:46.171Z,31.10
2019-03-20T17:16:13.695Z,31.70
2019-03-20T17:18:41.215Z,32.30
2019-03-20T17:21:08.713Z,33.67
2019-03-20T17:23:36.253Z,30.73
2019-03-20T17:26:04.034Z,32.40
2019-03-20T17:28:31.813Z,32.80
2019-03-20T17:30:59.526Z,34.57
2019-03-20T17:33:27.272Z,32.80
2019-03-20T17:35:54.871Z,36.53
2019-03-20T17:38:23.467Z,36.53
2019-03-20T17:40:50.913Z,34.25
2019-03-20T17:43:18.411Z,36.03
2019-03-20T17:45:46.339Z,33.37
2019-03-20T17:48:14.015Z,35.00
2019-03-20T17:50:41.659Z,35.60
2019-03-20T17:53:09.287Z,34.40
2019-03-20T17:55:36.826Z,37.20
2019-03-20T17:58:04.698Z,34.20
2019-03-20T18:00:35.585Z,35.70
2019-03-20T18:03:03.537Z,35.30
2019-03-20T18:05:31.154Z,34.90
2019-03-20T18:07:58.722Z,38.10
2019-03-20T18:10:26.493Z,36.03
2019-03-20T18:12:53.919Z,37.63
2019-03-20T18:15:21.511Z,40.00
2019-03-20T18:17:49.042Z,36.80
2019-03-20T18:20:16.761Z,37.33
2019-03-20T18:22:45.366Z,38.00
2019-03-20T18:25:13.065Z,36.90
2019-03-20T18:27:40.812Z,47.88
2019-03-20T18:30:17.118Z,43.92
2019-03-20T18:32:47.833Z,41.60
2019-03-20T18:35:15.278Z,42.23
2019-03-20T18:37:43.100Z,41.60
2019-03-20T18:40:13.148Z,42.70
2019-03-20T18:42:40.885Z,40.17
2019-03-20T18:45:09.193Z,42.10
2019-03-20T18:47:36.767Z,41.67
2019-03-20T18:50:05.084Z,43.60
2019-03-20T18:52:32.854Z,44.13
2019-03-20T18:55:00.611Z,43.63
2019-03-20T18:57:28.170Z,43.20
2019-03-20T18:59:55.626Z,43.20
2019-03-20T19:02:23.283Z,43.80
2019-03-20T19:04:50.792Z,45.37
2019-03-20T19:07:18.387Z,44.90
2019-03-20T19:09:46.169Z,44.80
2019-03-20T19:12:13.893Z,46.95
2019-03-20T19:14:41.490Z,44.47
2019-03-20T19:17:09.129Z,52.80
2019-03-20T19:19:36.636Z,48.17
2019-03-20T19:22:04.381Z,48.80
2019-03-20T19:24:31.939Z,47.43
2019-03-20T19:26:59.272Z,48.30
2019-03-20T19:29:26.905Z,45.17
2019-03-20T19:31:55.793Z,48.17
2019-03-20T19:34:23.461Z,46.17
2019-03-20T19:36:51.344Z,45.23
2019-03-20T19:39:18.996Z,48.83
2019-03-20T19:41:46.725Z,46.40
2019-03-20T19:44:14.167Z,46.57
2019-03-20T19:46:41.643Z,47.63
2019-03-20T19:49:09.132Z,46.67
2019-03-20T19:51:36.633Z,48.10
2019-03-20T19:54:04.036Z,46.83
2019-03-20T19:56:31.510Z,49.13
2019-03-20T19:58:58.910Z,50.33
2019-03-20T20:01:26.395Z,48.17
2019-03-20T20:03:53.922Z,54.95
2019-03-20T20:06:21.443Z,49.43
2019-03-20T20:08:50.682Z,51.20
2019-03-20T20:11:18.218Z,48.50
2019-03-20T20:13:45.645Z,47.50
2019-03-20T20:16:13.110Z,48.97
2019-03-20T20:18:40.535Z,44.70
2019-03-20T20:21:07.963Z,47.93
2019-03-20T20:23:35.375Z,45.87
2019-03-20T20:26:02.770Z,49.20
2019-03-20T20:28:30.408Z,47.80
2019-03-20T20:30:58.247Z,44.30
2019-03-20T20:33:26.851Z,47.00
2019-03-20T20:35:54.317Z,48.50
2019-03-20T20:38:21.970Z,48.13
2019-03-20T20:40:49.645Z,47.70
2019-03-20T20:43:17.098Z,46.50
2019-03-20T20:45:44.912Z,49.80
2019-03-20T20:48:12.509Z,48.37
2019-03-20T20:50:40.134Z,53.78
2019-03-20T20:53:07.701Z,49.77
2019-03-20T20:55:35.200Z,47.30
2019-03-20T20:58:02.847Z,48.10
2019-03-20T21:00:30.450Z,47.23
2019-03-20T21:03:01.683Z,46.97
2019-03-20T21:05:41.400Z,46.60
2019-03-20T21:08:08.900Z,49.70
2019-03-20T21:10:36.396Z,46.73
2019-03-20T21:13:03.926Z,46.87
2019-03-20T21:15:36.823Z,45.87
2019-03-20T21:18:56.007Z,45.83
2019-03-20T21:21:30.495Z,46.07
2019-03-20T21:24:26.370Z,46.63
2019-03-20T21:27:45.205Z,45.17
2019-03-20T21:30:48.767Z,47.40
2019-03-20T21:33:29.581Z,44.57
2019-03-20T21:39:39.195Z,45.80
2019-03-20T21:42:47.002Z,46.43
2019-03-20T21:45:39.678Z,47.37
2019-03-20T21:48:07.841Z,45.80
2019-03-20T21:51:15.084Z,44.53
2019-03-20T21:54:33.793Z,45.03
2019-03-20T21:57:35.816Z,45.70
2019-03-20T22:00:54.555Z,44.27
2019-03-20T22:03:23.224Z,45.00
2019-03-20T22:06:37.642Z,45.23
2019-03-20T22:09:30.595Z,43.30
2019-03-20T22:12:35.588Z,44.00
2019-03-20T22:15:14.440Z,43.23
2019-03-20T22:18:22.811Z,43.10
2019-03-20T22:21:15.547Z,41.50
2019-03-20T22:24:43.429Z,47.88
2019-03-20T22:27:44.518Z,45.95
2019-03-20T22:30:12.631Z,41.43
2019-03-20T22:33:18.685Z,42.10
2019-03-20T22:35:59.459Z,43.17
2019-03-20T22:39:13.631Z,43.83
2019-03-20T22:41:57.576Z,43.67
2019-03-20T22:44:25.821Z,43.30
2019-03-20T22:47:28.811Z,40.40
2019-03-20T22:50:21.075Z,44.07
2019-03-20T22:53:26.581Z,41.90
2019-03-20T22:56:39.698Z,42.70
2019-03-20T22:59:07.787Z,43.23
2019-03-20T23:02:05.385Z,41.00
2019-03-20T23:04:36.287Z,42.50
2019-03-20T23:07:04.526Z,41.23
2019-03-20T23:09:32.902Z,43.87
2019-03-20T23:12:05.944Z,45.15
2019-03-20T23:14:36.488Z,42.93
2019-03-20T23:17:04.514Z,51.20
2019-03-20T23:19:32.972Z,44.60
2019-03-20T23:22:01.210Z,44.63
2019-03-20T23:24:29.135Z,41.87
2019-03-20T23:26:58.828Z,43.80
2019-03-20T23:29:27.152Z,47.70
2019-03-20T23:31:55.440Z,44.93
2019-03-20T23:34:23.526Z,43.27
2019-03-20T23:36:51.693Z,44.80
2019-03-20T23:39:20.011Z,43.33
2019-03-20T23:41:48.126Z,43.50
2019-03-20T23:44:16.329Z,43.00
2019-03-20T23:46:44.470Z,45.73
2019-03-20T23:49:15.405Z,44.97
2019-03-20T23:51:43.631Z,41.57
2019-03-20T23:54:13.601Z,42.63
2019-03-20T23:56:41.897Z,43.47
2019-03-20T23:59:10.362Z,45.47
